Time;durP1;ratioP1;P1;durP2;ratioP2;P2;SDS_P1;SDS_P2;PMS_P1;PMS_P2;Temp;Humidity;BMP_temperature;BMP_pressure;BME280_temperature;BME280_humidity;BME280_pressure;Samples;Min_cycle;Max_cycle;Signal;HPM_P1;HPM_P2
2021/09/04 15:39:49;;;;;;;0.52;0.52;;;27.70;52.20;;;;;;5057998;27;20443;-45
2021/09/04 15:42:16;;;;;;;1.48;0.30;;;27.70;53.40;;;;;;5056831;28;20110;-47
2021/09/04 15:44:43;;;;;;;1.85;0.50;;;27.80;53.60;;;;;;5062533;28;20086;-45
2021/09/04 15:47:11;;;;;;;6.20;1.30;;;28.00;53.40;;;;;;5061832;28;20119;-44
2021/09/04 15:49:38;;;;;;;19.17;2.33;;;28.10;53.00;;;;;;5061775;28;20114;-42
2021/09/04 15:52:06;;;;;;;29.33;3.88;;;28.30;52.80;;;;;;5064724;28;20115;-45
2021/09/04 15:54:33;;;;;;;13.77;1.42;;;28.40;52.90;;;;;;5063226;28;20039;-46
2021/09/04 15:57:01;;;;;;;4.68;1.20;;;28.50;53.10;;;;;;5062211;28;20127;-45
2021/09/04 15:59:29;;;;;;;11.93;0.93;;;28.60;52.80;;;;;;5061300;28;20049;-48
2021/09/04 16:01:56;;;;;;;9.32;0.70;;;28.70;52.20;;;;;;5062368;28;20111;-49
2021/09/04 16:04:23;;;;;;;5.80;0.60;;;28.80;52.10;;;;;;5061061;28;20047;-52
2021/09/04 16:06:51;;;;;;;3.45;0.80;;;28.90;51.80;;;;;;5065018;28;20139;-59
2021/09/04 16:09:18;;;;;;;20.48;1.10;;;28.90;51.70;;;;;;5062483;28;20037;-46
2021/09/04 16:11:45;;;;;;;5.78;0.88;;;29.00;51.40;;;;;;5064668;28;20560;-42
2021/09/04 16:14:13;;;;;;;4.78;0.85;;;29.00;51.30;;;;;;5060773;28;20033;-49
2021/09/04 16:16:41;;;;;;;1.40;0.40;;;29.10;51.30;;;;;;5062747;28;20412;-51
2021/09/04 16:19:08;;;;;;;1.83;1.02;;;29.10;51.10;;;;;;5051607;28;20044;-47
2021/09/04 16:21:35;;;;;;;0.68;0.55;;;29.10;50.90;;;;;;5061936;28;20037;-48
2021/09/04 16:24:02;;;;;;;2.45;1.20;;;29.20;50.80;;;;;;5061459;28;20040;-47
2021/09/04 16:26:30;;;;;;;5.47;0.95;;;29.20;50.70;;;;;;5057656;28;20120;-46
2021/09/04 16:28:58;;;;;;;2.45;1.13;;;29.20;51.20;;;;;;5057640;28;20501;-49
2021/09/04 16:31:26;;;;;;;2.60;0.50;;;29.30;50.50;;;;;;5054488;28;20136;-48
2021/09/04 16:33:53;;;;;;;1.40;0.60;;;29.30;50.30;;;;;;5062938;28;20059;-45
2021/09/04 16:36:20;;;;;;;4.47;0.32;;;29.30;50.20;;;;;;5058683;28;20060;-46
2021/09/04 16:38:47;;;;;;;1.13;0.35;;;29.30;50.10;;;;;;5049681;28;20063;-47
2021/09/04 16:41:14;;;;;;;2.08;0.47;;;29.30;50.00;;;;;;5046844;28;20099;-45
2021/09/04 16:43:41;;;;;;;0.40;0.40;;;29.30;50.00;;;;;;5051767;28;20145;-42
2021/09/04 16:46:08;;;;;;;4.38;0.98;;;29.30;49.80;;;;;;5075270;28;20037;-45
2021/09/04 16:48:37;;;;;;;3.05;1.23;;;29.30;49.70;;;;;;5066575;28;20127;-45
2021/09/04 16:51:04;;;;;;;1.85;0.38;;;29.40;49.60;;;;;;5050167;28;20140;-43
2021/09/04 16:53:31;;;;;;;3.50;0.30;;;29.30;49.50;;;;;;5047570;28;20060;-45
2021/09/04 16:55:59;;;;;;;0.60;0.60;;;29.40;49.50;;;;;;5037481;28;20385;-48
2021/09/04 16:58:26;;;;;;;2.95;0.52;;;29.40;49.30;;;;;;5046600;28;20109;-44
2021/09/04 17:00:53;;;;;;;3.00;0.90;;;29.30;49.20;;;;;;5057413;28;20044;-47
2021/09/04 17:03:20;;;;;;;5.30;0.45;;;29.30;49.10;;;;;;5047958;28;20040;-43
2021/09/04 17:05:48;;;;;;;5.03;0.82;;;29.40;49.20;;;;;;5049593;28;20441;-48
2021/09/04 17:08:15;;;;;;;1.88;0.52;;;29.40;49.10;;;;;;5039664;28;20065;-42
2021/09/04 17:10:42;;;;;;;2.50;0.73;;;29.30;49.30;;;;;;5042188;28;20041;-43
2021/09/04 17:13:09;;;;;;;1.85;0.73;;;29.30;49.30;;;;;;5044763;28;20115;-48
2021/09/04 17:15:36;;;;;;;6.45;1.17;;;29.20;49.50;;;;;;5062128;28;20059;-42
2021/09/04 17:18:03;;;;;;;5.30;1.23;;;29.20;49.20;;;;;;5042947;28;20044;-45
2021/09/04 17:20:30;;;;;;;0.68;0.65;;;29.10;49.20;;;;;;5046066;28;20135;-45
2021/09/04 17:22:59;;;;;;;0.60;0.55;;;29.10;49.20;;;;;;5033030;28;20033;-44
2021/09/04 17:25:27;;;;;;;1.55;1.50;;;29.10;49.50;;;;;;5046554;28;20041;-46
2021/09/04 17:27:54;;;;;;;2.13;1.92;;;29.00;50.00;;;;;;5056068;28;20627;-45
2021/09/04 17:30:21;;;;;;;2.08;1.20;;;29.00;50.00;;;;;;5036016;28;20042;-43
2021/09/04 17:32:48;;;;;;;2.10;1.73;;;28.90;49.80;;;;;;5035900;28;20528;-40
2021/09/04 17:35:15;;;;;;;3.47;2.05;;;28.90;50.10;;;;;;5034846;28;20098;-47
2021/09/04 17:37:43;;;;;;;1.48;0.73;;;28.80;49.80;;;;;;5052221;28;20080;-47
2021/09/04 17:40:11;;;;;;;0.68;0.68;;;28.80;49.50;;;;;;5048756;28;20041;-41
2021/09/04 17:42:39;;;;;;;0.60;0.60;;;28.80;49.40;;;;;;5042039;28;20120;-41
2021/09/04 17:45:07;;;;;;;6.55;1.88;;;28.80;49.20;;;;;;5037335;28;20033;-41
2021/09/04 17:47:35;;;;;;;4.85;1.35;;;28.70;49.50;;;;;;5045351;28;20036;-45
2021/09/04 17:50:02;;;;;;;4.75;2.33;;;28.70;49.90;;;;;;5048490;28;20045;-46
2021/09/04 17:52:30;;;;;;;2.58;1.23;;;28.70;50.20;;;;;;5032723;28;20562;-39
2021/09/04 17:54:57;;;;;;;2.15;1.20;;;28.70;50.50;;;;;;5040364;28;20072;-42
2021/09/04 17:57:26;;;;;;;2.20;1.90;;;28.70;50.90;;;;;;5054453;28;20484;-42
2021/09/04 17:59:54;;;;;;;3.85;1.38;;;28.60;51.20;;;;;;5033230;28;20053;-42
2021/09/04 18:02:23;;;;;;;2.70;1.80;;;28.60;51.60;;;;;;5031574;28;20562;-41
2021/09/04 18:04:50;;;;;;;1.83;1.45;;;28.60;52.10;;;;;;5039234;28;20556;-42
2021/09/04 18:07:17;;;;;;;3.80;1.83;;;28.60;52.60;;;;;;5035689;28;20036;-47
2021/09/04 18:09:44;;;;;;;3.25;2.08;;;28.60;53.00;;;;;;5039300;28;20682;-39
2021/09/04 18:12:11;;;;;;;5.93;1.55;;;28.50;53.00;;;;;;5031737;28;20037;-43
2021/09/04 18:14:40;;;;;;;1.88;1.63;;;28.50;53.40;;;;;;5031277;28;20051;-41
2021/09/04 18:17:07;;;;;;;4.68;1.67;;;28.50;53.60;;;;;;5035637;28;20052;-45
2021/09/04 18:19:34;;;;;;;4.47;3.55;;;28.50;53.80;;;;;;5051719;28;20044;-41
2021/09/04 18:22:01;;;;;;;5.22;3.25;;;28.50;54.10;;;;;;5044005;28;20121;-42
2021/09/04 18:24:29;;;;;;;9.93;8.93;;;28.40;54.20;;;;;;5049630;28;20513;-46
2021/09/04 18:26:56;;;;;;;11.02;5.60;;;28.40;54.30;;;;;;5042154;28;20060;-40
2021/09/04 18:29:23;;;;;;;6.38;3.83;;;28.40;54.40;;;;;;5047182;28;20039;-40
2021/09/04 18:31:52;;;;;;;3.42;3.13;;;28.40;54.60;;;;;;5046107;28;20045;-42
2021/09/04 18:34:19;;;;;;;3.50;2.75;;;28.40;54.80;;;;;;5033499;28;20056;-40
2021/09/04 18:36:46;;;;;;;8.13;2.38;;;28.30;54.80;;;;;;5049374;28;20075;-44
2021/09/04 18:39:13;;;;;;;4.50;2.67;;;28.30;54.80;;;;;;5047548;28;20064;-41
2021/09/04 18:41:40;;;;;;;9.40;3.85;;;28.30;55.00;;;;;;5033453;28;20049;-42
2021/09/04 18:44:08;;;;;;;6.30;2.47;;;28.20;55.00;;;;;;5050401;28;20064;-40
2021/09/04 18:46:35;;;;;;;4.28;1.92;;;28.20;55.20;;;;;;5055256;28;20045;-39
2021/09/04 18:49:03;;;;;;;4.03;2.78;;;28.20;55.20;;;;;;5040724;28;20116;-38
2021/09/04 18:51:30;;;;;;;1.67;1.52;;;28.20;55.30;;;;;;5046619;28;20033;-38
2021/09/04 18:53:57;;;;;;;2.15;1.95;;;28.20;55.30;;;;;;5044534;28;20040;-41
2021/09/04 18:56:24;;;;;;;4.00;1.90;;;28.10;55.30;;;;;;5044579;28;20061;-41
2021/09/04 18:58:51;;;;;;;5.32;2.05;;;28.10;55.30;;;;;;5047026;28;20135;-39
2021/09/04 19:01:19;;;;;;;4.45;2.03;;;28.10;55.60;;;;;;5044560;28;20493;-38
2021/09/04 19:03:47;;;;;;;4.00;2.42;;;28.10;55.40;;;;;;5046261;28;20041;-37
2021/09/04 19:06:16;;;;;;;4.95;1.58;;;28.00;55.30;;;;;;5046208;28;20504;-42
2021/09/04 19:08:45;;;;;;;2.13;1.98;;;28.10;55.30;;;;;;5042595;28;20041;-40
2021/09/04 19:11:13;;;;;;;2.63;2.17;;;28.00;55.90;;;;;;5042274;28;20049;-40
2021/09/04 19:13:42;;;;;;;6.25;2.40;;;28.00;55.40;;;;;;5041152;28;20037;-41
2021/09/04 19:16:11;;;;;;;5.75;2.47;;;27.90;55.50;;;;;;5044423;28;20505;-48
2021/09/04 19:18:40;;;;;;;8.25;2.97;;;28.00;55.90;;;;;;5047228;28;20041;-43
2021/09/04 19:21:09;;;;;;;3.88;2.70;;;27.90;56.20;;;;;;5044838;28;20041;-39
2021/09/04 19:23:37;;;;;;;3.85;2.55;;;27.90;56.50;;;;;;5033891;28;20064;-41
2021/09/04 19:26:04;;;;;;;3.22;1.92;;;27.90;56.40;;;;;;5038350;28;20132;-38
2021/09/04 19:28:31;;;;;;;6.72;3.38;;;27.90;56.40;;;;;;5056293;28;20138;-41
2021/09/04 19:30:58;;;;;;;5.25;2.72;;;27.90;56.40;;;;;;5030234;28;20119;-39
2021/09/04 19:33:25;;;;;;;7.18;2.80;;;27.80;56.30;;;;;;5031864;28;20135;-41
2021/09/04 19:35:52;;;;;;;7.60;2.20;;;27.80;56.10;;;;;;5036438;28;20103;-40
2021/09/04 19:38:19;;;;;;;6.22;2.33;;;27.80;56.20;;;;;;5035617;28;20535;-41
2021/09/04 19:40:47;;;;;;;2.90;2.42;;;27.80;56.20;;;;;;5031712;28;20048;-41
2021/09/04 19:43:15;;;;;;;2.55;2.20;;;27.80;56.20;;;;;;5037061;28;20391;-44
2021/09/04 19:45:43;;;;;;;2.97;2.50;;;27.70;56.20;;;;;;5045346;28;20582;-43
2021/09/04 19:48:10;;;;;;;4.68;2.38;;;27.70;56.20;;;;;;5047533;28;20045;-42
2021/09/04 19:50:38;;;;;;;4.82;2.03;;;27.70;56.50;;;;;;5040889;28;20045;-43
2021/09/04 19:53:07;;;;;;;5.45;1.95;;;27.70;56.70;;;;;;5031044;28;20053;-43
2021/09/04 19:55:34;;;;;;;3.80;2.08;;;27.80;56.90;;;;;;5035996;28;20139;-42
2021/09/04 19:58:03;;;;;;;4.15;2.38;;;27.80;56.90;;;;;;5054749;28;20042;-46
2021/09/04 20:00:30;;;;;;;1.55;1.45;;;27.80;56.90;;;;;;5028556;28;20054;-41
2021/09/04 20:03:00;;;;;;;2.45;1.88;;;27.90;56.90;;;;;;5026734;28;20045;-44
2021/09/04 20:05:27;;;;;;;3.33;1.73;;;27.90;56.90;;;;;;5043096;28;20065;-43
2021/09/04 20:07:55;;;;;;;3.75;1.95;;;27.90;56.90;;;;;;5044136;28;20060;-40
2021/09/04 20:10:22;;;;;;;2.00;1.33;;;27.90;56.90;;;;;;5044057;28;20116;-44
2021/09/04 20:12:49;;;;;;;3.00;1.75;;;28.00;57.00;;;;;;5045270;28;20041;-44
2021/09/04 20:15:18;;;;;;;2.80;1.45;;;28.00;57.00;;;;;;5046039;28;20119;-51
2021/09/04 20:17:45;;;;;;;2.40;1.85;;;28.00;57.10;;;;;;5044608;28;20681;-42
2021/09/04 20:20:14;;;;;;;3.63;1.65;;;28.10;57.20;;;;;;5044765;28;20459;-47
2021/09/04 20:22:41;;;;;;;2.28;1.90;;;28.10;57.30;;;;;;5045795;28;20090;-44
2021/09/04 20:25:09;;;;;;;2.67;2.05;;;28.10;57.30;;;;;;5045390;28;20097;-41
2021/09/04 20:27:36;;;;;;;2.85;2.03;;;28.10;57.30;;;;;;5049817;28;20481;-42
2021/09/04 20:30:04;;;;;;;3.72;1.90;;;28.10;57.40;;;;;;5049567;28;20447;-41
2021/09/04 20:32:32;;;;;;;3.03;1.83;;;28.20;57.50;;;;;;5038639;28;20447;-47
2021/09/04 20:35:05;;;;;;;2.13;1.92;;;28.20;57.60;;;;;;5039612;28;20045;-44
2021/09/04 20:37:48;;;;;;;3.35;2.22;;;28.20;57.60;;;;;;5047327;28;20602;-42
2021/09/04 20:40:16;;;;;;;2.75;2.15;;;28.20;57.60;;;;;;5030217;28;20107;-44
2021/09/04 20:42:43;;;;;;;2.10;1.80;;;28.20;57.70;;;;;;5053756;28;20431;-44
2021/09/04 20:45:10;;;;;;;1.92;1.75;;;28.20;57.70;;;;;;5033780;28;20041;-45
2021/09/04 20:47:39;;;;;;;2.42;2.17;;;28.20;57.70;;;;;;5032129;28;20057;-47
2021/09/04 20:50:07;;;;;;;2.97;2.10;;;28.20;57.70;;;;;;5043987;28;20037;-43
2021/09/04 20:52:34;;;;;;;2.45;1.73;;;28.30;57.80;;;;;;5034227;28;20045;-41
2021/09/04 20:55:01;;;;;;;1.52;1.40;;;28.30;57.80;;;;;;5056804;28;20508;-44
2021/09/04 20:57:29;;;;;;;1.85;1.75;;;28.30;57.90;;;;;;5045000;28;20132;-47
2021/09/04 20:59:56;;;;;;;4.22;1.92;;;28.30;57.90;;;;;;5034531;28;20588;-43
2021/09/04 21:02:23;;;;;;;1.83;1.73;;;28.30;57.90;;;;;;5033262;28;20033;-42
2021/09/04 21:04:52;;;;;;;3.25;1.92;;;28.30;57.90;;;;;;5039723;28;20124;-44
2021/09/04 21:07:19;;;;;;;2.28;1.40;;;28.30;57.90;;;;;;5059290;28;20067;-47
2021/09/04 21:09:46;;;;;;;2.00;1.85;;;28.30;57.90;;;;;;5048345;28;20098;-46
2021/09/04 21:12:13;;;;;;;1.92;1.83;;;28.40;58.00;;;;;;5033046;28;20069;-48
2021/09/04 21:14:40;;;;;;;1.77;1.67;;;28.40;58.00;;;;;;5032119;28;20498;-40
2021/09/04 21:17:07;;;;;;;6.57;2.28;;;28.40;57.90;;;;;;5047348;28;20079;-42
2021/09/04 21:19:34;;;;;;;2.72;2.33;;;28.40;57.90;;;;;;5047771;28;20045;-43
2021/09/04 21:22:03;;;;;;;2.35;1.40;;;28.40;57.90;;;;;;5046620;28;20120;-45
2021/09/04 21:24:30;;;;;;;3.05;1.98;;;28.40;57.90;;;;;;5054693;28;20038;-44
2021/09/04 21:26:57;;;;;;;3.38;1.63;;;28.40;57.90;;;;;;5046726;28;20168;-47
2021/09/04 21:29:24;;;;;;;2.00;1.70;;;28.40;57.90;;;;;;5041064;28;20091;-46
2021/09/04 21:31:51;;;;;;;2.95;2.13;;;28.40;57.90;;;;;;5044472;28;20049;-48
2021/09/04 21:34:18;;;;;;;2.15;1.95;;;28.40;57.90;;;;;;5048092;28;20036;-50
2021/09/04 21:36:45;;;;;;;3.60;2.75;;;28.40;57.90;;;;;;5050014;28;20064;-41
2021/09/04 21:39:14;;;;;;;2.65;1.98;;;28.40;57.90;;;;;;5049245;28;20055;-43
2021/09/04 21:41:41;;;;;;;3.10;2.22;;;28.40;57.90;;;;;;5046393;28;20069;-45
2021/09/04 21:44:08;;;;;;;2.70;2.28;;;28.40;58.00;;;;;;5046065;28;20037;-41
2021/09/04 21:46:35;;;;;;;1.88;1.63;;;28.40;58.10;;;;;;5046736;28;20068;-41
2021/09/04 21:49:02;;;;;;;3.15;1.55;;;28.40;58.20;;;;;;5044382;28;20045;-46
2021/09/04 21:51:29;;;;;;;2.90;2.50;;;28.40;58.30;;;;;;5048992;28;20048;-43
2021/09/04 21:53:56;;;;;;;2.88;2.38;;;28.40;58.50;;;;;;5046675;28;20059;-44
2021/09/04 21:56:25;;;;;;;1.85;1.75;;;28.40;58.60;;;;;;5046109;28;20049;-47
2021/09/04 21:58:52;;;;;;;2.45;1.80;;;28.40;59.00;;;;;;5046070;28;20068;-43
2021/09/04 22:01:19;;;;;;;2.55;2.35;;;28.40;59.30;;;;;;5046768;28;20041;-42
2021/09/04 22:03:46;;;;;;;4.05;2.78;;;28.40;59.60;;;;;;5048239;28;20043;-44
2021/09/04 22:06:13;;;;;;;1.90;1.80;;;28.40;59.80;;;;;;5048366;28;20041;-48
2021/09/04 22:08:40;;;;;;;1.98;1.80;;;28.50;59.90;;;;;;5045601;28;20048;-45
2021/09/04 22:11:07;;;;;;;3.72;2.45;;;28.40;60.10;;;;;;5045369;28;20064;-44
2021/09/04 22:13:38;;;;;;;3.20;2.35;;;28.40;60.20;;;;;;5045707;28;20614;-48
2021/09/04 22:16:06;;;;;;;2.47;2.38;;;28.50;60.40;;;;;;5043430;28;20119;-42
2021/09/04 22:18:34;;;;;;;2.70;2.28;;;28.50;60.60;;;;;;5049877;28;20045;-45
2021/09/04 22:21:01;;;;;;;2.67;2.17;;;28.50;60.60;;;;;;5047469;28;20481;-43
2021/09/04 22:23:28;;;;;;;2.05;1.83;;;28.40;60.60;;;;;;5047254;28;20120;-42
2021/09/04 22:25:55;;;;;;;3.33;2.40;;;28.40;60.60;;;;;;5046626;28;20142;-43
2021/09/04 22:28:22;;;;;;;2.92;2.65;;;28.40;60.60;;;;;;5044898;28;20062;-44
2021/09/04 22:30:51;;;;;;;2.80;2.65;;;28.50;60.90;;;;;;5045323;28;20033;-42
2021/09/04 22:33:18;;;;;;;2.22;1.83;;;28.40;60.90;;;;;;5046620;28;20037;-44
2021/09/04 22:35:45;;;;;;;2.28;2.08;;;28.50;61.00;;;;;;5045205;28;20033;-44
2021/09/04 22:38:11;;;;;;;2.72;1.85;;;28.40;60.90;;;;;;5045986;28;20049;-48
2021/09/04 22:40:41;;;;;;;2.05;1.42;;;28.50;60.90;;;;;;5044816;28;20041;-47
2021/09/04 22:43:09;;;;;;;3.85;2.63;;;28.50;60.90;;;;;;5044221;28;20519;-45
2021/09/04 22:45:37;;;;;;;2.17;1.98;;;28.40;60.70;;;;;;5047873;28;20044;-42
2021/09/04 22:48:06;;;;;;;2.58;1.98;;;28.40;60.60;;;;;;5047214;28;20051;-44
2021/09/04 22:50:33;;;;;;;1.70;1.13;;;28.40;60.60;;;;;;5042743;28;20083;-43
2021/09/04 22:53:00;;;;;;;1.75;1.65;;;28.40;60.50;;;;;;5046927;28;20091;-44
2021/09/04 22:55:27;;;;;;;2.30;1.73;;;28.40;60.50;;;;;;5045164;28;20122;-42
2021/09/04 22:57:54;;;;;;;3.15;1.80;;;28.40;60.40;;;;;;5044569;28;20065;-42
2021/09/04 23:00:21;;;;;;;1.25;1.15;;;28.40;60.50;;;;;;5029999;28;20409;-44
2021/09/04 23:02:48;;;;;;;1.52;1.42;;;28.40;60.50;;;;;;5044963;28;20409;-42
2021/09/04 23:05:17;;;;;;;2.05;1.55;;;28.40;60.50;;;;;;5045613;28;20041;-44
2021/09/04 23:07:44;;;;;;;1.13;1.08;;;28.40;60.50;;;;;;5044547;28;20033;-41
2021/09/04 23:10:11;;;;;;;2.60;0.95;;;28.40;60.60;;;;;;5045166;28;20042;-45
2021/09/04 23:12:38;;;;;;;1.73;0.95;;;28.40;60.60;;;;;;5046451;28;20033;-44
2021/09/04 23:15:06;;;;;;;1.05;0.98;;;28.40;60.60;;;;;;5046305;28;20036;-48
2021/09/04 23:17:34;;;;;;;1.65;0.73;;;28.40;60.60;;;;;;5044704;28;20040;-46
2021/09/04 23:20:01;;;;;;;1.70;1.08;;;28.40;60.60;;;;;;5044704;28;20037;-43
2021/09/04 23:22:29;;;;;;;0.70;0.70;;;28.40;60.60;;;;;;5044996;28;20052;-45
2021/09/04 23:24:56;;;;;;;1.38;1.02;;;28.40;60.60;;;;;;5044878;28;20045;-45
2021/09/04 23:27:24;;;;;;;2.03;1.00;;;28.40;60.70;;;;;;5047904;28;20382;-48
2021/09/04 23:29:51;;;;;;;1.42;1.38;;;28.40;60.70;;;;;;5044995;28;20112;-47
2021/09/04 23:32:18;;;;;;;1.55;1.15;;;28.40;60.80;;;;;;5044112;28;20416;-47
2021/09/04 23:34:45;;;;;;;1.65;1.10;;;28.40;60.80;;;;;;5047861;28;20047;-45
2021/09/04 23:37:12;;;;;;;1.63;1.27;;;28.40;60.90;;;;;;5043888;28;20069;-41
2021/09/04 23:39:40;;;;;;;1.15;0.70;;;28.30;61.00;;;;;;5038622;28;20477;-43
2021/09/04 23:42:07;;;;;;;1.42;0.90;;;28.40;61.00;;;;;;5045898;28;20045;-40
2021/09/04 23:44:34;;;;;;;1.48;0.80;;;28.40;60.90;;;;;;5041809;28;20045;-44
2021/09/04 23:47:01;;;;;;;1.42;0.73;;;28.30;60.80;;;;;;5041500;28;20039;-43
2021/09/04 23:49:28;;;;;;;2.00;0.95;;;28.30;60.70;;;;;;5041674;28;20041;-44
2021/09/04 23:51:55;;;;;;;1.80;0.40;;;28.30;60.70;;;;;;5045291;28;20052;-41
2021/09/04 23:54:22;;;;;;;1.52;1.10;;;28.30;60.80;;;;;;5047202;28;20107;-43
2021/09/04 23:56:51;;;;;;;0.55;0.47;;;28.30;60.80;;;;;;5043926;28;20133;-43
2021/09/04 23:59:18;;;;;;;3.53;0.98;;;28.30;60.80;;;;;;5044396;28;20040;-40
